PWSweather.com
Personal Weather Stations
Station Observations
TARRYHILL
Tarrytown, NY 10591

Tarrytown, NY 10591

Lat: 41.05185, Lon: -73.85296

Elevation: 341

Station Type: Davis Vantage Vue

www.tarrytownnyweather.com

High Low Average
Temperature 83.8°F28.8°F 70.1°F21.2°F 77.2°F25.1°F
Dew Point 73.6°F23.1°F 57.2°F14.0°F 65.1°F18.4°F
Winds 4.6 mph SW7.4 mph SW Calm Calm 2.2 mph 3.5 mph
Wind Gusts 11.5 mph18.5 mph -- 4.5 mph7.2 mph
Humidity 97% 41% 70%
Pressure 29.88 in1011.90 in 29.58 in1001.70 in -
Precipitation 0.57 in14.50 in - -
Hour Temp Dew Point Humidity Winds Wind Gusts Pressure Precip Precip Rate Daily Precip Total
12:00 AM 75.7°F24.3°C 73.6°F23.1°C 93% 4.6 mph SW7.4 kmh SW 8.1 mph13.0 kmh 29.62 in1003.0 mb - 0.00 in0.0 mm 0.00 in0.0 mm
01:00 AM 76.1°F24.5°C 73.0°F22.8°C 90% 4.6 mph SW7.4 kmh SW 10.4 mph16.7 kmh 29.61 in1002.7 mb - 0.00 in0.0 mm 0.00 in0.0 mm
03:00 AM 73.8°F23.2°C 71.0°F21.7°C 91% 4.6 mph SSW7.4 kmh SSW 5.8 mph9.3 kmh 29.61 in1002.7 mb - 0.02 in0.5 mm 0.02 in0.5 mm
04:00 AM 71.9°F22.2°C 70.1°F21.2°C 94% 1.2 mph SW1.9 kmh SW 3.5 mph5.6 kmh 29.59 in1002.0 mb - 0.04 in1.0 mm 0.06 in1.5 mm
05:00 AM 71.5°F21.9°C 70.0°F21.1°C 95% 3.5 mph SW5.6 kmh SW 4.6 mph7.4 kmh 29.60 in1002.4 mb - 0.14 in3.6 mm 0.20 in5.1 mm
06:00 AM 70.9°F21.6°C 69.7°F20.9°C 96% Calm Calm 1.2 mph1.9 kmh 29.59 in1002.0 mb - 0.05 in1.3 mm 0.24 in6.1 mm
07:00 AM 70.7°F21.5°C 69.5°F20.8°C 96% Calm Calm -- 29.58 in1001.7 mb - 0.16 in4.1 mm 0.40 in10.2 mm
08:00 AM 70.1°F21.2°C 68.9°F20.5°C 96% Calm Calm 2.3 mph3.7 kmh 29.58 in1001.7 mb - 0.12 in3.0 mm 0.52 in13.2 mm
09:00 AM 71.2°F21.8°C 70.3°F21.3°C 97% 1.2 mph SSW1.9 kmh SSW 3.5 mph5.6 kmh 29.60 in1002.4 mb - 0.04 in1.0 mm 0.56 in14.2 mm
10:00 AM 74.2°F23.4°C 72.7°F22.6°C 95% 2.3 mph SW3.7 kmh SW 2.3 mph3.7 kmh 29.62 in1003.0 mb - 0.00 in0.0 mm 0.56 in14.2 mm
11:00 AM 79.7°F26.5°C 71.5°F21.9°C 76% 1.2 mph SSW1.9 kmh SSW 3.5 mph5.6 kmh 29.65 in1004.1 mb - 0.00 in0.0 mm 0.56 in14.2 mm
12:00 PM 81.2°F27.3°C 64.5°F18.1°C 57% 2.3 mph E3.7 kmh E 3.5 mph5.6 kmh 29.69 in1005.4 mb - 0.00 in0.0 mm 0.56 in14.2 mm
01:00 PM 82.6°F28.1°C 60.3°F15.7°C 47% 4.6 mph S7.4 kmh S 11.5 mph18.5 kmh 29.71 in1006.1 mb - 0.00 in0.0 mm 0.56 in14.2 mm
02:00 PM 83.1°F28.4°C 58.9°F14.9°C 44% 2.3 mph SSE3.7 kmh SSE 4.6 mph7.4 kmh 29.73 in1006.8 mb - 0.00 in0.0 mm 0.56 in14.2 mm
03:00 PM 83.8°F28.8°C 58.9°F14.9°C 43% 2.3 mph SW3.7 kmh SW 3.5 mph5.6 kmh 29.75 in1007.5 mb - 0.00 in0.0 mm 0.56 in14.2 mm
04:00 PM 83.5°F28.6°C 58.6°F14.8°C 43% 4.6 mph WNW7.4 kmh WNW 11.5 mph18.5 kmh 29.77 in1008.1 mb - 0.00 in0.0 mm 0.56 in14.2 mm
05:00 PM 82.9°F28.3°C 58.1°F14.5°C 43% 2.3 mph S3.7 kmh S 4.6 mph7.4 kmh 29.79 in1008.8 mb - 0.00 in0.0 mm 0.56 in14.2 mm
06:00 PM 83.6°F28.7°C 57.4°F14.1°C 41% 2.3 mph SW3.7 kmh SW 5.8 mph9.3 kmh 29.80 in1009.1 mb - 0.00 in0.0 mm 0.56 in14.2 mm
07:00 PM 83.4°F28.6°C 57.2°F14.0°C 41% 2.3 mph SW3.7 kmh SW 3.5 mph5.6 kmh 29.80 in1009.1 mb - 0.00 in0.0 mm 0.56 in14.2 mm
08:00 PM 81.1°F27.3°C 58.4°F14.7°C 46% Calm Calm 1.2 mph1.9 kmh 29.82 in1009.8 mb - 0.00 in0.0 mm 0.56 in14.2 mm
09:00 PM 73.5°F23.1°C 61.9°F16.6°C 67% Calm Calm -- 29.83 in1010.2 mb - 0.00 in0.0 mm 0.56 in14.2 mm
10:00 PM 76.1°F24.5°C 60.7°F15.9°C 59% Calm Calm 3.5 mph5.6 kmh 29.87 in1011.5 mb - 0.00 in0.0 mm 0.56 in14.2 mm
11:00 PM 75.5°F24.2°C 61.6°F16.4°C 62% 3.5 mph SW5.6 kmh SW 5.8 mph9.3 kmh 29.88 in1011.9 mb - 0.00 in0.0 mm 0.56 in14.2 mm